N164SW 4B8-KHYA
Flight info
| Callsign | N164SW |
|---|---|
| Flight time | N/A |
| Altitude | 7000 |
| Route | 4B8 HFD V167 PVD T393 GAILS KHYA |
| Aircraft | SF50/L-V/N |
Departure
| Time | N/A |
|---|---|
| Airport | 4B8 |
Arrival
| Time | 2026-05-07 00:36 |
|---|---|
| Airport | Cape Cod Gateway Airport (KHYA) |
| Time | Latitude | Longitude | Altitude | Speed | Heading |
|---|---|---|---|---|---|
| 2026-05-06 23:45 | 41.69284 | -72.86519 | 201 ft | 0 kts | 71° |
| 2026-05-06 23:49 | 41.69288 | -72.86508 | 199 ft | 7 kts | 53° |
| 2026-05-06 23:49 | 41.69345 | -72.86480 | 201 ft | 10 kts | 8° |
| 2026-05-06 23:49 | 41.69368 | -72.86474 | 202 ft | 0 kts | 12° |
| 2026-05-06 23:51 | 41.69380 | -72.86470 | 205 ft | 0 kts | 12° |
| 2026-05-06 23:53 | 41.69382 | -72.86469 | 202 ft | 2 kts | 17° |
| 2026-05-06 23:54 | 41.69414 | -72.86432 | 202 ft | 9 kts | 78° |
| 2026-05-06 23:54 | 41.69310 | -72.86421 | 199 ft | 41 kts | 184° |
| 2026-05-06 23:54 | 41.68811 | -72.86483 | 241 ft | 96 kts | 185° |
| 2026-05-06 23:54 | 41.68113 | -72.86604 | 643 ft | 113 kts | 186° |
| 2026-05-06 23:55 | 41.67301 | -72.86752 | 1146 ft | 120 kts | 190° |
| 2026-05-06 23:55 | 41.66494 | -72.86847 | 1676 ft | 115 kts | 191° |
| 2026-05-06 23:55 | 41.65687 | -72.86838 | 2185 ft | 118 kts | 187° |
| 2026-05-06 23:55 | 41.64844 | -72.86769 | 2616 ft | 123 kts | 188° |
| 2026-05-06 23:56 | 41.63996 | -72.86667 | 3144 ft | 122 kts | 186° |
| 2026-05-06 23:56 | 41.63139 | -72.86569 | 3576 ft | 126 kts | 188° |
| 2026-05-06 23:56 | 41.62268 | -72.86420 | 4095 ft | 129 kts | 172° |
| 2026-05-06 23:56 | 41.61635 | -72.85515 | 4727 ft | 142 kts | 124° |
| 2026-05-06 23:57 | 41.61474 | -72.84220 | 5339 ft | 144 kts | 79° |
| 2026-05-06 23:57 | 41.61643 | -72.82935 | 5953 ft | 136 kts | 88° |
| 2026-05-06 23:57 | 41.61705 | -72.81733 | 6517 ft | 126 kts | 84° |
| 2026-05-06 23:57 | 41.61820 | -72.80598 | 6894 ft | 126 kts | 86° |
| 2026-05-06 23:58 | 41.61910 | -72.79387 | 7207 ft | 139 kts | 84° |
| 2026-05-06 23:58 | 41.62039 | -72.78013 | 7462 ft | 164 kts | 84° |
| 2026-05-06 23:58 | 41.62194 | -72.76216 | 7021 ft | 210 kts | 84° |
| 2026-05-06 23:58 | 41.62371 | -72.74294 | 7139 ft | 209 kts | 83° |
| 2026-05-06 23:59 | 41.62546 | -72.72357 | 7297 ft | 205 kts | 84° |
| 2026-05-06 23:59 | 41.62716 | -72.70413 | 7230 ft | 217 kts | 84° |
| 2026-05-06 23:59 | 41.62897 | -72.68372 | 7135 ft | 227 kts | 84° |
| 2026-05-06 23:59 | 41.63090 | -72.66246 | 7032 ft | 234 kts | 84° |
| 2026-05-07 00:00 | 41.63284 | -72.64043 | 6985 ft | 243 kts | 84° |
| 2026-05-07 00:00 | 41.63487 | -72.61763 | 6985 ft | 259 kts | 84° |
| 2026-05-07 00:00 | 41.63704 | -72.59317 | 6990 ft | 273 kts | 84° |
| 2026-05-07 00:00 | 41.63933 | -72.56745 | 6986 ft | 284 kts | 84° |
| 2026-05-07 00:01 | 41.64168 | -72.54089 | 6987 ft | 290 kts | 84° |
| 2026-05-07 00:01 | 41.64388 | -72.51384 | 6994 ft | 294 kts | 85° |
| 2026-05-07 00:01 | 41.64590 | -72.48659 | 6996 ft | 297 kts | 85° |
| 2026-05-07 00:01 | 41.64806 | -72.45902 | 6999 ft | 299 kts | 85° |
| 2026-05-07 00:02 | 41.65029 | -72.43117 | 6995 ft | 302 kts | 85° |
| 2026-05-07 00:02 | 41.65249 | -72.40311 | 6996 ft | 304 kts | 84° |
| 2026-05-07 00:02 | 41.65465 | -72.37508 | 7003 ft | 305 kts | 85° |
| 2026-05-07 00:02 | 41.65685 | -72.34725 | 6995 ft | 303 kts | 85° |
| 2026-05-07 00:03 | 41.65907 | -72.31872 | 7000 ft | 306 kts | 85° |
| 2026-05-07 00:03 | 41.66119 | -72.29083 | 7003 ft | 306 kts | 85° |
| 2026-05-07 00:03 | 41.66336 | -72.26240 | 6998 ft | 308 kts | 85° |
| 2026-05-07 00:03 | 41.66558 | -72.23400 | 6996 ft | 308 kts | 85° |
| 2026-05-07 00:04 | 41.66777 | -72.20552 | 7000 ft | 308 kts | 85° |
| 2026-05-07 00:04 | 41.66992 | -72.17671 | 6996 ft | 312 kts | 85° |
| 2026-05-07 00:04 | 41.67213 | -72.14775 | 7010 ft | 315 kts | 85° |
| 2026-05-07 00:04 | 41.67435 | -72.11844 | 7008 ft | 316 kts | 85° |
| 2026-05-07 00:05 | 41.67655 | -72.08909 | 7005 ft | 317 kts | 85° |
| 2026-05-07 00:05 | 41.67877 | -72.05982 | 7005 ft | 317 kts | 85° |
| 2026-05-07 00:05 | 41.68096 | -72.03059 | 7006 ft | 317 kts | 85° |
| 2026-05-07 00:05 | 41.68314 | -72.00149 | 7000 ft | 317 kts | 85° |
| 2026-05-07 00:06 | 41.68534 | -71.97223 | 7002 ft | 317 kts | 85° |
| 2026-05-07 00:06 | 41.68749 | -71.94294 | 7005 ft | 317 kts | 85° |
| 2026-05-07 00:06 | 41.68966 | -71.91355 | 7005 ft | 319 kts | 85° |
| 2026-05-07 00:06 | 41.69185 | -71.88390 | 7009 ft | 320 kts | 85° |
| 2026-05-07 00:07 | 41.69403 | -71.85435 | 7005 ft | 320 kts | 85° |
| 2026-05-07 00:07 | 41.69620 | -71.82465 | 7001 ft | 320 kts | 85° |
| 2026-05-07 00:07 | 41.69834 | -71.79512 | 7011 ft | 320 kts | 85° |
| 2026-05-07 00:07 | 41.70048 | -71.76557 | 7012 ft | 320 kts | 85° |
| 2026-05-07 00:08 | 41.70264 | -71.73587 | 7013 ft | 321 kts | 85° |
| 2026-05-07 00:08 | 41.70478 | -71.70616 | 7014 ft | 321 kts | 85° |
| 2026-05-07 00:08 | 41.70689 | -71.67673 | 7009 ft | 322 kts | 85° |
| 2026-05-07 00:08 | 41.70904 | -71.64651 | 7016 ft | 329 kts | 86° |
| 2026-05-07 00:09 | 41.71124 | -71.61590 | 7018 ft | 333 kts | 86° |
| 2026-05-07 00:09 | 41.71345 | -71.58482 | 7021 ft | 336 kts | 86° |
| 2026-05-07 00:09 | 41.71563 | -71.55364 | 7020 ft | 338 kts | 86° |
| 2026-05-07 00:09 | 41.71784 | -71.52237 | 7021 ft | 339 kts | 86° |
| 2026-05-07 00:10 | 41.72008 | -71.49085 | 7021 ft | 339 kts | 86° |
| 2026-05-07 00:10 | 41.72227 | -71.45942 | 7024 ft | 340 kts | 86° |
| 2026-05-07 00:10 | 41.72456 | -71.42826 | 7022 ft | 339 kts | 84° |
| 2026-05-07 00:10 | 41.72896 | -71.39712 | 7018 ft | 336 kts | 79° |
| 2026-05-07 00:11 | 41.73364 | -71.36644 | 7012 ft | 337 kts | 79° |
| 2026-05-07 00:11 | 41.73801 | -71.33599 | 7012 ft | 339 kts | 80° |
| 2026-05-07 00:11 | 41.74240 | -71.30492 | 7014 ft | 340 kts | 80° |
| 2026-05-07 00:11 | 41.74688 | -71.27394 | 7012 ft | 339 kts | 80° |
| 2026-05-07 00:12 | 41.75143 | -71.24300 | 7015 ft | 339 kts | 80° |
| 2026-05-07 00:12 | 41.75593 | -71.21219 | 7013 ft | 336 kts | 79° |
| 2026-05-07 00:12 | 41.76092 | -71.18152 | 7012 ft | 337 kts | 78° |
| 2026-05-07 00:12 | 41.76571 | -71.15089 | 7016 ft | 335 kts | 80° |
| 2026-05-07 00:13 | 41.77012 | -71.12028 | 7012 ft | 334 kts | 79° |
| 2026-05-07 00:13 | 41.77835 | -71.09196 | 7009 ft | 331 kts | 65° |
| 2026-05-07 00:13 | 41.78381 | -71.06203 | 7009 ft | 333 kts | 87° |
| 2026-05-07 00:13 | 41.78411 | -71.03109 | 7012 ft | 332 kts | 93° |
| 2026-05-07 00:14 | 41.78481 | -71.00016 | 7010 ft | 335 kts | 86° |
| 2026-05-07 00:14 | 41.78893 | -70.96928 | 7006 ft | 337 kts | 78° |
| 2026-05-07 00:14 | 41.79467 | -70.93882 | 7004 ft | 338 kts | 77° |
| 2026-05-07 00:14 | 41.79969 | -70.90805 | 7008 ft | 337 kts | 81° |
| 2026-05-07 00:15 | 41.80346 | -70.87703 | 7009 ft | 337 kts | 83° |
| 2026-05-07 00:15 | 41.80738 | -70.84627 | 7003 ft | 336 kts | 81° |
| 2026-05-07 00:15 | 41.81195 | -70.81535 | 7007 ft | 337 kts | 80° |
| 2026-05-07 00:15 | 41.81647 | -70.78455 | 7003 ft | 339 kts | 81° |
| 2026-05-07 00:16 | 41.82071 | -70.75346 | 7007 ft | 338 kts | 81° |
| 2026-05-07 00:16 | 41.82492 | -70.72240 | 7007 ft | 338 kts | 81° |
| 2026-05-07 00:16 | 41.82928 | -70.69138 | 7007 ft | 337 kts | 81° |
| 2026-05-07 00:16 | 41.83359 | -70.66063 | 7007 ft | 336 kts | 81° |
| 2026-05-07 00:17 | 41.83783 | -70.62983 | 7007 ft | 337 kts | 81° |
| 2026-05-07 00:17 | 41.84199 | -70.59943 | 7009 ft | 336 kts | 81° |
| 2026-05-07 00:17 | 41.84626 | -70.56849 | 7008 ft | 337 kts | 82° |
| 2026-05-07 00:17 | 41.85049 | -70.53772 | 7009 ft | 335 kts | 82° |
| 2026-05-07 00:18 | 41.85470 | -70.50697 | 7019 ft | 335 kts | 82° |
| 2026-05-07 00:18 | 41.85883 | -70.47629 | 7014 ft | 334 kts | 83° |
| 2026-05-07 00:18 | 41.85857 | -70.44545 | 7027 ft | 328 kts | 103° |
| 2026-05-07 00:18 | 41.85343 | -70.41574 | 7030 ft | 327 kts | 111° |
| 2026-05-07 00:19 | 41.84724 | -70.38707 | 6921 ft | 320 kts | 111° |
| 2026-05-07 00:19 | 41.84202 | -70.35809 | 6604 ft | 319 kts | 108° |
| 2026-05-07 00:19 | 41.83733 | -70.32874 | 6289 ft | 317 kts | 108° |
| 2026-05-07 00:19 | 41.83239 | -70.30048 | 5962 ft | 315 kts | 109° |
| 2026-05-07 00:20 | 41.82712 | -70.27199 | 5639 ft | 314 kts | 110° |
| 2026-05-07 00:20 | 41.82208 | -70.24358 | 5311 ft | 313 kts | 110° |
| 2026-05-07 00:20 | 41.81731 | -70.21626 | 4985 ft | 293 kts | 111° |
| 2026-05-07 00:20 | 41.81275 | -70.19029 | 4654 ft | 281 kts | 111° |
| 2026-05-07 00:21 | 41.80822 | -70.16516 | 4320 ft | 275 kts | 112° |
| 2026-05-07 00:21 | 41.80374 | -70.14051 | 4012 ft | 270 kts | 111° |
| 2026-05-07 00:21 | 41.79934 | -70.11598 | 3683 ft | 272 kts | 111° |
| 2026-05-07 00:21 | 41.79490 | -70.09128 | 3367 ft | 274 kts | 112° |
| 2026-05-07 00:22 | 41.79122 | -70.06577 | 3029 ft | 300 kts | 102° |
| 2026-05-07 00:22 | 41.79418 | -70.03709 | 2689 ft | 327 kts | 76° |
| 2026-05-07 00:22 | 41.80569 | -70.01046 | 2345 ft | 331 kts | 50° |
| 2026-05-07 00:22 | 41.82115 | -69.99020 | 2016 ft | 294 kts | 40° |
| 2026-05-07 00:23 | 41.83528 | -69.97207 | 1738 ft | 274 kts | 49° |
| 2026-05-07 00:23 | 41.84673 | -69.95227 | 1721 ft | 263 kts | 57° |
| 2026-05-07 00:23 | 41.85944 | -69.93529 | 1724 ft | 258 kts | 29° |
| 2026-05-07 00:23 | 41.87588 | -69.92760 | 1718 ft | 245 kts | 0° |
| 2026-05-07 00:24 | 41.89228 | -69.92845 | 1720 ft | 229 kts | 335° |
| 2026-05-07 00:24 | 41.90634 | -69.93627 | 1715 ft | 211 kts | 314° |
| 2026-05-07 00:24 | 41.91683 | -69.94862 | 1722 ft | 193 kts | 294° |
| 2026-05-07 00:24 | 41.92348 | -69.96287 | 1720 ft | 163 kts | 278° |
| 2026-05-07 00:25 | 41.92650 | -69.97581 | 1693 ft | 137 kts | 264° |
| 2026-05-07 00:25 | 41.92735 | -69.98801 | 1694 ft | 124 kts | 255° |
| 2026-05-07 00:25 | 41.92639 | -69.99900 | 1712 ft | 117 kts | 246° |
| 2026-05-07 00:25 | 41.92414 | -70.00929 | 1694 ft | 116 kts | 239° |
| 2026-05-07 00:26 | 41.92048 | -70.01907 | 1707 ft | 119 kts | 232° |
| 2026-05-07 00:26 | 41.91536 | -70.02810 | 1718 ft | 124 kts | 226° |
| 2026-05-07 00:26 | 41.90875 | -70.03577 | 1717 ft | 129 kts | 216° |
| 2026-05-07 00:26 | 41.90022 | -70.04034 | 1738 ft | 136 kts | 202° |
| 2026-05-07 00:27 | 41.89101 | -70.04350 | 1734 ft | 137 kts | 203° |
| 2026-05-07 00:27 | 41.88194 | -70.04694 | 1731 ft | 137 kts | 204° |
| 2026-05-07 00:27 | 41.87208 | -70.05069 | 1731 ft | 168 kts | 202° |
| 2026-05-07 00:27 | 41.85939 | -70.05548 | 1744 ft | 210 kts | 200° |
| 2026-05-07 00:28 | 41.84428 | -70.06093 | 1742 ft | 231 kts | 200° |
| 2026-05-07 00:28 | 41.82887 | -70.06641 | 1742 ft | 229 kts | 200° |
| 2026-05-07 00:28 | 41.81361 | -70.07238 | 1733 ft | 226 kts | 204° |
| 2026-05-07 00:28 | 41.79956 | -70.08131 | 1730 ft | 222 kts | 212° |
| 2026-05-07 00:29 | 41.78704 | -70.09270 | 1738 ft | 221 kts | 219° |
| 2026-05-07 00:29 | 41.77585 | -70.10671 | 1738 ft | 220 kts | 227° |
| 2026-05-07 00:30 | 41.75574 | -70.13868 | 1725 ft | 98 kts | 226° |
| 2026-05-07 00:30 | 41.75176 | -70.14489 | 1694 ft | 80 kts | 227° |
| 2026-05-07 00:30 | 41.74848 | -70.15016 | 1691 ft | 69 kts | 226° |
| 2026-05-07 00:30 | 41.74551 | -70.15483 | 1698 ft | 65 kts | 226° |
| 2026-05-07 00:31 | 41.74194 | -70.16040 | 1713 ft | 103 kts | 226° |
| 2026-05-07 00:31 | 41.73639 | -70.16907 | 1736 ft | 138 kts | 227° |
| 2026-05-07 00:31 | 41.73030 | -70.17876 | 1714 ft | 124 kts | 229° |
| 2026-05-07 00:31 | 41.72547 | -70.18708 | 1578 ft | 104 kts | 232° |
| 2026-05-07 00:32 | 41.72205 | -70.19308 | 1531 ft | 68 kts | 227° |
| 2026-05-07 00:32 | 41.71921 | -70.19730 | 1369 ft | 54 kts | 224° |
| 2026-05-07 00:32 | 41.71650 | -70.20080 | 1290 ft | 59 kts | 227° |
| 2026-05-07 00:32 | 41.71419 | -70.20523 | 1383 ft | 62 kts | 232° |
| 2026-05-07 00:33 | 41.71095 | -70.21031 | 1286 ft | 76 kts | 224° |
| 2026-05-07 00:33 | 41.70730 | -70.21563 | 1184 ft | 80 kts | 228° |
| 2026-05-07 00:33 | 41.70375 | -70.22132 | 1082 ft | 76 kts | 221° |
| 2026-05-07 00:33 | 41.69965 | -70.22601 | 847 ft | 78 kts | 219° |
| 2026-05-07 00:34 | 41.69648 | -70.23192 | 806 ft | 81 kts | 230° |
| 2026-05-07 00:34 | 41.69281 | -70.23762 | 647 ft | 78 kts | 226° |
| 2026-05-07 00:34 | 41.68954 | -70.24362 | 607 ft | 83 kts | 227° |
| 2026-05-07 00:34 | 41.68555 | -70.25007 | 458 ft | 94 kts | 223° |
| 2026-05-07 00:35 | 41.68155 | -70.25656 | 349 ft | 91 kts | 225° |
| 2026-05-07 00:35 | 41.67736 | -70.26313 | 269 ft | 94 kts | 225° |
| 2026-05-07 00:35 | 41.67298 | -70.26964 | 67 ft | 89 kts | 226° |
| 2026-05-07 00:35 | 41.66963 | -70.27490 | 51 ft | 67 kts | 230° |
| 2026-05-07 00:36 | 41.66711 | -70.27887 | 46 ft | 39 kts | 229° |
| 2026-05-07 00:36 | 41.66618 | -70.28029 | 47 ft | 16 kts | 231° |
| 2026-05-07 00:36 | 41.66554 | -70.28130 | 49 ft | 13 kts | 229° |
| 2026-05-07 00:36 | 41.66569 | -70.28192 | 50 ft | 11 kts | 322° |